TimeMDT,TemperatureF,Dew PointF,Humidity,Sea Level PressureIn,VisibilityMPH,Wind Direction,Wind SpeedMPH,Gust SpeedMPH,PrecipitationIn,Events,Conditions,WindDirDegrees,DateUTC
12:16 AM,50.0,23.0,35,30.14,10.0,Calm,Calm,-,N/A,,Clear,0,2013-06-23 06:16:00
12:36 AM,50.0,23.0,35,30.15,10.0,West,3.5,-,N/A,,Clear,260,2013-06-23 06:36:00
12:56 AM,46.4,28.4,50,30.16,10.0,East,3.5,-,N/A,,Clear,100,2013-06-23 06:56:00
1:16 AM,44.6,23.0,43,30.16,10.0,ESE,3.5,-,N/A,,Clear,120,2013-06-23 07:16:00
1:36 AM,42.8,24.8,49,30.17,10.0,Calm,Calm,-,N/A,,Clear,0,2013-06-23 07:36:00
1:56 AM,42.8,23.0,46,30.17,10.0,ENE,3.5,-,N/A,,Clear,60,2013-06-23 07:56:00
2:16 AM,41.0,24.8,53,30.18,10.0,ESE,5.8,-,N/A,,Clear,120,2013-06-23 08:16:00
2:36 AM,42.8,23.0,46,30.18,10.0,East,3.5,-,N/A,,Clear,90,2013-06-23 08:36:00
2:55 AM,39.2,28.4,65,30.18,10.0,Calm,Calm,-,N/A,,Clear,0,2013-06-23 08:55:00
3:16 AM,37.4,28.4,70,30.18,10.0,Calm,Calm,-,N/A,,Clear,0,2013-06-23 09:16:00
3:35 AM,37.4,28.4,70,30.19,10.0,Calm,Calm,-,N/A,,Clear,0,2013-06-23 09:35:00
3:56 AM,39.2,26.6,61,30.19,10.0,Calm,Calm,-,N/A,,Clear,0,2013-06-23 09:56:00
4:16 AM,37.4,26.6,65,30.19,10.0,East,3.5,-,N/A,,Clear,90,2013-06-23 10:16:00
4:36 AM,37.4,28.4,70,30.20,10.0,Calm,Calm,-,N/A,,Clear,0,2013-06-23 10:36:00
4:56 AM,35.6,28.4,75,30.20,10.0,Calm,Calm,-,N/A,,Clear,0,2013-06-23 10:56:00
5:15 AM,35.6,28.4,75,30.20,10.0,Calm,Calm,-,N/A,,Clear,0,2013-06-23 11:15:00
5:36 AM,33.8,23.0,65,30.20,10.0,Calm,Calm,-,N/A,,Clear,0,2013-06-23 11:36:00
5:56 AM,33.8,24.8,70,30.21,10.0,Calm,Calm,-,N/A,,Clear,0,2013-06-23 11:56:00
6:16 AM,35.6,24.8,65,30.21,10.0,Calm,Calm,-,N/A,,Clear,0,2013-06-23 12:16:00
6:36 AM,37.4,26.6,65,30.21,10.0,Calm,Calm,-,N/A,,Clear,0,2013-06-23 12:36:00
6:56 AM,41.0,24.8,53,30.21,10.0,Calm,Calm,-,N/A,,Clear,0,2013-06-23 12:56:00
7:16 AM,42.8,23.0,46,30.21,10.0,Calm,Calm,-,N/A,,Clear,0,2013-06-23 13:16:00
7:36 AM,44.6,26.6,49,30.20,10.0,Calm,Calm,-,N/A,,Clear,0,2013-06-23 13:36:00
7:56 AM,46.4,26.6,46,30.20,10.0,Calm,Calm,-,N/A,,Clear,0,2013-06-23 13:56:00
8:16 AM,50.0,26.6,40,30.19,10.0,Calm,Calm,-,N/A,,Clear,0,2013-06-23 14:16:00
8:36 AM,50.0,24.8,37,30.19,10.0,Calm,Calm,-,N/A,,Clear,0,2013-06-23 14:36:00
8:56 AM,53.6,24.8,33,30.19,10.0,Calm,Calm,-,N/A,,Clear,0,2013-06-23 14:56:00
9:15 AM,53.6,23.0,30,30.18,10.0,Calm,Calm,-,N/A,,Clear,0,2013-06-23 15:15:00
9:36 AM,59.0,24.8,27,30.17,10.0,Calm,Calm,-,N/A,,Clear,0,2013-06-23 15:36:00
9:56 AM,59.0,23.0,25,30.16,10.0,Calm,Calm,-,N/A,,Clear,0,2013-06-23 15:56:00
10:16 AM,60.8,23.0,23,30.15,10.0,Calm,Calm,-,N/A,,Clear,0,2013-06-23 16:16:00
10:36 AM,62.6,21.2,20,30.14,10.0,Calm,Calm,-,N/A,,Clear,0,2013-06-23 16:36:00
10:56 AM,68.0,21.2,17,30.14,10.0,East,4.6,-,N/A,,Clear,90,2013-06-23 16:56:00
11:16 AM,69.8,19.4,15,30.12,10.0,SE,3.5,-,N/A,,Clear,130,2013-06-23 17:16:00
11:35 AM,71.6,19.4,14,30.12,10.0,Calm,Calm,-,N/A,,Clear,0,2013-06-23 17:35:00
11:56 AM,75.2,17.6,11,30.11,10.0,SSW,4.6,-,N/A,,Clear,210,2013-06-23 17:56:00
12:16 PM,77.0,17.6,11,30.10,10.0,WSW,12.7,-,N/A,,Clear,250,2013-06-23 18:16:00
12:36 PM,78.8,12.2,8,30.09,10.0,West,13.8,20.7,N/A,,Clear,260,2013-06-23 18:36:00
12:56 PM,78.8,10.4,7,30.08,10.0,WSW,16.1,27.6,N/A,,Scattered Clouds,250,2013-06-23 18:56:00
1:16 PM,78.8,10.4,7,30.07,10.0,West,16.1,28.8,N/A,,Scattered Clouds,260,2013-06-23 19:16:00
1:36 PM,80.6,10.4,7,30.07,10.0,WSW,12.7,21.9,N/A,,Scattered Clouds,240,2013-06-23 19:36:00
1:55 PM,80.6,10.4,7,30.06,10.0,WSW,13.8,27.6,N/A,,Scattered Clouds,240,2013-06-23 19:55:00
2:16 PM,78.8,10.4,7,30.06,10.0,SW,19.6,26.5,N/A,,Scattered Clouds,230,2013-06-23 20:16:00
2:35 PM,77.0,10.4,8,30.06,10.0,WSW,12.7,21.9,N/A,,Scattered Clouds,240,2013-06-23 20:35:00
2:56 PM,80.6,10.4,7,30.05,10.0,West,10.4,20.7,N/A,,Scattered Clouds,260,2013-06-23 20:56:00
3:15 PM,82.4,8.6,6,30.04,10.0,WSW,13.8,23.0,N/A,,Clear,240,2013-06-23 21:15:00
3:36 PM,80.6,8.6,6,30.04,10.0,WSW,18.4,23.0,N/A,,Clear,250,2013-06-23 21:36:00
3:56 PM,80.6,8.6,6,30.02,10.0,SW,12.7,17.3,N/A,,Scattered Clouds,230,2013-06-23 21:56:00
4:16 PM,80.6,10.4,7,30.02,10.0,West,11.5,19.6,N/A,,Clear,280,2013-06-23 22:16:00
4:36 PM,80.6,10.4,7,30.01,10.0,West,18.4,24.2,N/A,,Clear,260,2013-06-23 22:36:00
4:55 PM,80.6,10.4,7,30.01,10.0,WSW,9.2,20.7,N/A,,Clear,250,2013-06-23 22:55:00
5:16 PM,80.6,8.6,6,30.00,10.0,WSW,13.8,21.9,N/A,,Clear,240,2013-06-23 23:16:00
5:36 PM,80.6,10.4,7,30.00,10.0,West,13.8,-,N/A,,Clear,260,2013-06-23 23:36:00
5:56 PM,77.0,10.4,8,29.99,10.0,West,4.6,-,N/A,,Scattered Clouds,270,2013-06-23 23:56:00
6:16 PM,75.2,17.6,11,30.00,10.0,South,13.8,31.1,N/A,,Mostly Cloudy,170,2013-06-24 00:16:00
6:36 PM,73.4,19.4,13,30.01,10.0,SE,10.4,19.6,N/A,,Scattered Clouds,140,2013-06-24 00:36:00
6:56 PM,73.4,21.2,14,30.02,10.0,South,28.8,38.0,N/A,,Scattered Clouds,180,2013-06-24 00:56:00
7:15 PM,69.8,30.2,23,30.05,10.0,SSE,28.8,46.0,N/A,Rain-Thunderstorm,Light Thunderstorms and Rain,150,2013-06-24 01:15:00
7:36 PM,69.8,28.4,21,30.04,10.0,SE,16.1,27.6,N/A,,Overcast,130,2013-06-24 01:36:00
7:56 PM,66.2,30.2,26,30.06,10.0,Calm,Calm,-,N/A,,Mostly Cloudy,0,2013-06-24 01:56:00
8:16 PM,64.4,30.2,28,30.07,10.0,South,6.9,-,N/A,,Scattered Clouds,190,2013-06-24 02:16:00
8:36 PM,64.4,30.2,28,30.05,10.0,NNE,4.6,-,N/A,,Scattered Clouds,30,2013-06-24 02:36:00
8:56 PM,60.8,30.2,31,30.06,10.0,Calm,Calm,-,N/A,,Clear,0,2013-06-24 02:56:00
9:16 PM,59.0,32.0,36,30.07,10.0,West,6.9,-,N/A,,Clear,260,2013-06-24 03:16:00
9:36 PM,59.0,32.0,36,30.07,10.0,Calm,Calm,-,N/A,,Clear,0,2013-06-24 03:36:00
9:56 PM,57.2,32.0,38,30.07,10.0,Calm,Calm,-,N/A,,Clear,0,2013-06-24 03:56:00
10:16 PM,55.4,32.0,41,30.07,10.0,Calm,Calm,-,N/A,,Clear,0,2013-06-24 04:16:00
10:36 PM,53.6,32.0,44,30.07,10.0,Calm,Calm,-,N/A,,Clear,0,2013-06-24 04:36:00
10:56 PM,53.6,33.8,47,30.07,10.0,Calm,Calm,-,N/A,,Clear,0,2013-06-24 04:56:00
11:16 PM,50.0,32.0,50,30.07,10.0,Calm,Calm,-,N/A,,Clear,0,2013-06-24 05:16:00
11:36 PM,48.2,33.8,58,30.08,10.0,Calm,Calm,-,N/A,,Clear,0,2013-06-24 05:36:00
11:56 PM,48.2,35.6,62,30.08,10.0,Calm,Calm,-,N/A,,Clear,0,2013-06-24 05:56:00